Terminal Aerodrome Forecast
Issued by NWS Sterling, VA

Home | Current Version | Previous Version | Text Only | Print | Product List | Glossary On
Versions: 1 2 3 4 5 6 7 8 9 10 11 12 13 14 15 16 17
250
FTUS41 KLWX 271145 AAA
TAFCHO
TAF AMD
KCHO 271145Z 2712/2812 18004KT 4SM BR OVC008
     FM271400 20004KT P6SM BKN025
     FM271600 21005KT P6SM BKN110
     FM271700 22009KT P6SM BKN110
     FM280000 20005KT P6SM BKN050=

USA.gov is the U.S. government's official web portal to all federal, state and local government web resources and services.